Time;durP1;ratioP1;P1;durP2;ratioP2;P2;SDS_P1;SDS_P2;PMS_P1;PMS_P2;Temp;Humidity;BMP_temperature;BMP_pressure;BME280_temperature;BME280_humidity;BME280_pressure;Samples;Min_cycle;Max_cycle;Signal;HPM_P1;HPM_P2
2021/10/29 00:01:09;;;;;;;8.70;7.80;;;12.50;73.40;;;;;;2614580;54;20163;-74
2021/10/29 00:03:35;;;;;;;9.17;8.23;;;12.60;73.50;;;;;;2615872;54;21185;-75
2021/10/29 00:06:00;;;;;;;12.37;7.87;;;12.50;73.40;;;;;;2615122;54;20506;-72
2021/10/29 00:08:27;;;;;;;7.83;7.10;;;12.50;73.90;;;;;;2614776;54;20491;-74
2021/10/29 00:10:53;;;;;;;10.77;8.37;;;12.40;74.00;;;;;;2615275;54;20981;-73
2021/10/29 00:13:18;;;;;;;13.63;9.30;;;12.30;73.90;;;;;;2614403;54;20529;-74
2021/10/29 00:15:44;;;;;;;10.43;8.70;;;12.20;74.50;;;;;;2615313;54;20664;-74
2021/10/29 00:18:11;;;;;;;10.83;9.20;;;12.20;74.50;;;;;;2616021;54;20713;-73
2021/10/29 00:20:37;;;;;;;10.07;8.87;;;12.30;74.40;;;;;;2614936;54;20428;-74
2021/10/29 00:23:03;;;;;;;12.27;8.47;;;12.30;74.00;;;;;;2612221;54;20978;-72
2021/10/29 00:25:30;;;;;;;11.00;8.33;;;12.30;74.50;;;;;;2612547;54;20426;-74
2021/10/29 00:27:57;;;;;;;9.90;8.90;;;12.20;74.20;;;;;;2611802;54;20181;-73
2021/10/29 00:30:23;;;;;;;9.23;7.90;;;12.20;74.40;;;;;;2615443;54;20416;-74
2021/10/29 00:32:48;;;;;;;10.57;8.97;;;12.10;74.60;;;;;;2614390;54;20454;-72
2021/10/29 00:35:14;;;;;;;22.70;8.50;;;12.20;74.50;;;;;;2614795;47;20992;-74
2021/10/29 00:37:40;;;;;;;11.07;8.40;;;12.30;74.00;;;;;;2613353;47;20431;-73
2021/10/29 00:40:13;;;;;;;12.27;8.10;;;12.30;74.10;;;;;;2614059;39;20826;-74
2021/10/29 00:42:42;;;;;;;8.67;7.87;;;12.20;74.40;;;;;;2615948;54;20439;-74
2021/10/29 00:45:10;;;;;;;9.77;8.70;;;12.20;74.60;;;;;;2614183;54;20419;-73
2021/10/29 00:47:36;;;;;;;10.90;8.40;;;12.20;74.60;;;;;;2615153;54;20487;-73
2021/10/29 00:50:04;;;;;;;10.97;8.80;;;12.20;74.80;;;;;;2614549;54;20948;-75
2021/10/29 00:52:31;;;;;;;12.50;8.30;;;12.10;74.80;;;;;;2615522;54;20496;-74
2021/10/29 00:54:58;;;;;;;9.20;7.87;;;12.10;74.90;;;;;;2614451;47;20956;-72
2021/10/29 00:57:25;;;;;;;11.03;8.27;;;12.10;75.20;;;;;;2614260;47;20499;-74
2021/10/29 00:59:51;;;;;;;10.23;8.30;;;12.10;75.00;;;;;;2615036;54;20423;-74
2021/10/29 01:02:17;;;;;;;8.90;8.10;;;12.10;75.20;;;;;;2613414;54;20518;-74
2021/10/29 01:04:43;;;;;;;9.20;7.93;;;12.10;75.30;;;;;;2614908;39;20848;-74
2021/10/29 01:07:09;;;;;;;11.37;8.80;;;12.10;75.50;;;;;;2615715;54;20419;-73
2021/10/29 01:09:35;;;;;;;13.03;8.00;;;12.10;75.30;;;;;;2613379;39;20517;-75
2021/10/29 01:12:02;;;;;;;12.17;7.37;;;12.10;75.50;;;;;;2615435;54;20431;-75
2021/10/29 01:14:28;;;;;;;14.03;9.20;;;12.10;75.70;;;;;;2615855;54;20226;-74
2021/10/29 01:16:55;;;;;;;10.43;9.23;;;12.10;75.60;;;;;;2615583;39;20784;-73
2021/10/29 01:19:27;;;;;;;8.83;7.30;;;12.10;75.40;;;;;;2613443;54;20399;-74
2021/10/29 01:21:53;;;;;;;9.30;8.17;;;12.10;75.50;;;;;;2613803;54;20952;-73
2021/10/29 01:24:21;;;;;;;8.10;7.30;;;12.20;75.40;;;;;;2614352;54;20421;-74
2021/10/29 01:26:47;;;;;;;9.53;8.00;;;12.20;75.60;;;;;;2613819;54;20174;-74
2021/10/29 01:29:15;;;;;;;9.80;8.27;;;12.10;75.80;;;;;;2612719;54;20482;-74
2021/10/29 01:31:41;;;;;;;8.40;6.90;;;12.20;75.90;;;;;;2614109;54;20427;-73
2021/10/29 01:34:07;;;;;;;11.33;8.40;;;12.10;76.10;;;;;;2614223;54;21071;-74
2021/10/29 01:36:34;;;;;;;11.67;8.60;;;12.00;76.40;;;;;;2614118;54;20131;-74
2021/10/29 01:38:59;;;;;;;11.07;7.73;;;12.10;76.50;;;;;;2614634;54;20147;-74
2021/10/29 01:41:25;;;;;;;8.27;7.47;;;12.10;76.50;;;;;;2615496;39;22008;-74
2021/10/29 01:43:51;;;;;;;12.90;9.20;;;12.00;76.80;;;;;;2615512;54;20677;-73
2021/10/29 01:46:17;;;;;;;11.00;8.67;;;12.10;76.50;;;;;;2615141;39;20684;-73
2021/10/29 01:48:51;;;;;;;9.87;7.50;;;12.10;76.50;;;;;;2614144;54;20156;-73
2021/10/29 01:51:18;;;;;;;11.07;8.57;;;12.10;76.30;;;;;;2613843;54;20165;-72
2021/10/29 01:53:45;;;;;;;11.40;8.60;;;12.10;76.30;;;;;;2615133;46;20460;-74
2021/10/29 01:56:12;;;;;;;7.73;7.13;;;12.10;76.20;;;;;;2614395;54;20456;-74
2021/10/29 01:58:38;;;;;;;11.20;8.57;;;12.00;76.40;;;;;;2615269;39;20795;-74
2021/10/29 02:01:05;;;;;;;9.20;7.10;;;12.10;76.30;;;;;;2615029;39;20811;-74
2021/10/29 02:03:31;;;;;;;11.53;8.93;;;12.00;76.40;;;;;;2612182;54;20448;-73
2021/10/29 02:05:57;;;;;;;12.33;8.83;;;12.10;76.10;;;;;;2614035;39;20859;-73
2021/10/29 02:08:25;;;;;;;9.53;8.53;;;12.00;76.40;;;;;;2614963;54;20466;-74
2021/10/29 02:10:51;;;;;;;10.20;7.60;;;12.10;76.00;;;;;;2614673;54;20154;-73
2021/10/29 02:13:18;;;;;;;12.30;8.77;;;12.10;75.80;;;;;;2615125;54;20451;-73
2021/10/29 02:15:44;;;;;;;11.60;8.37;;;12.10;75.90;;;;;;2615197;39;20848;-75
2021/10/29 02:18:09;;;;;;;12.70;7.73;;;12.20;75.50;;;;;;2614144;54;20442;-73
2021/10/29 02:20:35;;;;;;;10.67;8.10;;;12.10;75.20;;;;;;2615503;54;20155;-74
2021/10/29 02:23:03;;;;;;;10.83;7.33;;;12.00;75.50;;;;;;2612681;47;20173;-73
2021/10/29 02:25:29;;;;;;;11.23;8.47;;;12.10;75.20;;;;;;2613723;54;20404;-74
2021/10/29 02:27:55;;;;;;;9.70;7.90;;;12.20;75.20;;;;;;2612272;54;20400;-73
2021/10/29 02:30:22;;;;;;;14.63;8.70;;;12.30;74.50;;;;;;2614243;47;20426;-72
2021/10/29 02:32:48;;;;;;;9.90;8.07;;;12.30;74.90;;;;;;2614137;54;20162;-75
2021/10/29 02:35:14;;;;;;;9.37;8.47;;;12.20;75.20;;;;;;2614915;54;20387;-73
2021/10/29 02:37:40;;;;;;;8.93;7.43;;;12.10;75.40;;;;;;2614796;54;20419;-73
2021/10/29 02:40:06;;;;;;;7.90;7.10;;;12.20;75.20;;;;;;2614788;54;20523;-74
2021/10/29 02:42:32;;;;;;;8.23;7.07;;;12.20;74.90;;;;;;2615732;54;20446;-74
2021/10/29 02:44:59;;;;;;;9.93;8.90;;;12.30;74.60;;;;;;2613782;54;20412;-74
2021/10/29 02:47:25;;;;;;;9.80;7.83;;;12.30;74.40;;;;;;2615050;39;20214;-74
2021/10/29 02:49:51;;;;;;;10.00;7.20;;;12.40;74.40;;;;;;2614844;54;20426;-74
2021/10/29 02:52:17;;;;;;;9.00;7.50;;;12.20;74.70;;;;;;2612842;47;20957;-74
2021/10/29 02:54:42;;;;;;;11.77;7.80;;;12.30;74.50;;;;;;2614890;54;20146;-73
2021/10/29 02:57:08;;;;;;;9.50;8.40;;;12.00;75.40;;;;;;2615240;39;20908;-74
2021/10/29 02:59:34;;;;;;;12.50;8.83;;;11.90;75.90;;;;;;2613613;47;20420;-72
2021/10/29 03:02:00;;;;;;;11.30;7.73;;;12.00;75.80;;;;;;2613286;54;20155;-74
2021/10/29 03:04:27;;;;;;;11.20;8.33;;;12.00;75.80;;;;;;2615325;54;20283;-74
2021/10/29 03:06:53;;;;;;;14.27;7.97;;;12.00;75.50;;;;;;2614174;54;20419;-74
2021/10/29 03:09:18;;;;;;;9.57;8.20;;;12.00;75.50;;;;;;2615198;54;20443;-75
2021/10/29 03:11:44;;;;;;;8.80;7.10;;;12.10;75.30;;;;;;2616223;39;20929;-74
2021/10/29 03:14:11;;;;;;;12.93;7.47;;;12.10;75.40;;;;;;2616333;54;20245;-73
2021/10/29 03:16:37;;;;;;;10.00;8.37;;;12.20;74.80;;;;;;2615475;54;20155;-74
2021/10/29 03:19:03;;;;;;;11.53;7.80;;;12.10;75.00;;;;;;2616188;54;20423;-75
2021/10/29 03:21:29;;;;;;;7.90;7.10;;;12.10;75.40;;;;;;2614406;54;20163;-73
2021/10/29 03:23:54;;;;;;;10.07;7.93;;;12.20;74.80;;;;;;2615866;54;20162;-74
2021/10/29 03:26:21;;;;;;;8.60;7.57;;;12.10;75.10;;;;;;2612574;54;20400;-74
2021/10/29 03:28:46;;;;;;;8.83;7.50;;;12.10;74.90;;;;;;2613976;54;20159;-74
2021/10/29 03:31:12;;;;;;;11.30;7.53;;;12.10;74.70;;;;;;2615447;47;20444;-74
2021/10/29 03:33:39;;;;;;;8.73;6.60;;;12.10;74.50;;;;;;2614870;54;20154;-73
2021/10/29 03:36:08;;;;;;;9.43;7.50;;;12.10;74.60;;;;;;2613357;54;20151;-73
2021/10/29 03:38:49;;;;;;;9.33;7.23;;;12.20;74.40;;;;;;2614348;54;20562;-74
2021/10/29 03:41:19;;;;;;;9.60;8.20;;;12.30;74.00;;;;;;2612939;50;20399;-74
2021/10/29 03:43:53;;;;;;;10.30;8.27;;;12.20;74.00;;;;;;2615257;54;20434;-73
2021/10/29 03:46:23;;;;;;;7.50;6.70;;;12.30;74.00;;;;;;2614180;54;20419;-73
2021/10/29 03:56:29;;;;;;;8.80;7.97;;;12.30;74.10;;;;;;2613539;54;20438;-73
2021/10/29 03:58:56;;;;;;;9.30;7.90;;;12.30;74.30;;;;;;2614080;54;20460;-73
2021/10/29 04:01:23;;;;;;;8.53;7.20;;;12.30;74.40;;;;;;2614266;47;20509;-74
2021/10/29 04:03:50;;;;;;;8.53;7.63;;;12.40;74.30;;;;;;2616415;39;20932;-74
2021/10/29 04:06:16;;;;;;;12.70;6.67;;;12.40;74.30;;;;;;2614398;39;20727;-74
2021/10/29 04:08:43;;;;;;;12.60;8.20;;;12.50;73.40;;;;;;2616412;54;21035;-73
2021/10/29 04:11:09;;;;;;;7.80;6.27;;;12.50;73.40;;;;;;2614397;54;20420;-73
2021/10/29 04:13:37;;;;;;;7.10;6.40;;;12.60;73.50;;;;;;2614446;54;20419;-74
2021/10/29 04:16:04;;;;;;;7.30;6.70;;;12.70;72.80;;;;;;2615159;47;20436;-74
2021/10/29 04:18:33;;;;;;;9.37;6.73;;;12.70;72.70;;;;;;2614623;39;20809;-74
2021/10/29 04:21:00;;;;;;;12.43;6.10;;;12.70;72.40;;;;;;2614278;46;20513;-73
2021/10/29 04:23:26;;;;;;;7.40;6.30;;;13.00;71.60;;;;;;2614209;54;20969;-73
2021/10/29 04:25:53;;;;;;;8.27;6.23;;;13.00;71.20;;;;;;2614496;54;20481;-74
2021/10/29 04:28:19;;;;;;;8.40;5.93;;;13.10;70.80;;;;;;2615190;54;20412;-74
2021/10/29 04:30:46;;;;;;;7.70;5.70;;;13.10;71.10;;;;;;2615460;47;20434;-74
2021/10/29 04:33:13;;;;;;;6.47;5.87;;;13.10;70.90;;;;;;2616761;54;20408;-75
2021/10/29 04:35:42;;;;;;;7.33;6.47;;;13.20;70.60;;;;;;2616209;39;20961;-75
2021/10/29 04:38:11;;;;;;;11.03;6.67;;;13.20;70.70;;;;;;2615720;54;20468;-73
2021/10/29 04:40:39;;;;;;;8.77;5.90;;;13.10;70.70;;;;;;2616788;54;20411;-73
2021/10/29 04:43:06;;;;;;;7.20;6.60;;;13.10;70.80;;;;;;2615868;54;20968;-74
2021/10/29 04:45:33;;;;;;;7.10;5.97;;;13.10;71.10;;;;;;2615069;54;20452;-73
2021/10/29 04:48:03;;;;;;;7.63;6.10;;;13.00;71.10;;;;;;2616170;54;20491;-73
2021/10/29 04:50:30;;;;;;;7.97;7.20;;;13.00;71.00;;;;;;2615261;47;20439;-74
2021/10/29 04:52:57;;;;;;;9.47;7.67;;;12.90;71.60;;;;;;2614163;47;20428;-73
2021/10/29 04:55:23;;;;;;;7.70;7.00;;;12.80;71.90;;;;;;2616627;39;20768;-74
2021/10/29 04:57:48;;;;;;;7.40;6.60;;;13.00;71.60;;;;;;2616462;54;20411;-74
2021/10/29 05:00:14;;;;;;;10.23;7.20;;;12.80;71.80;;;;;;2614126;54;20170;-73
2021/10/29 05:02:40;;;;;;;9.17;7.00;;;12.90;71.70;;;;;;2615541;54;20184;-74
2021/10/29 05:05:08;;;;;;;10.70;6.53;;;12.80;71.60;;;;;;2616791;54;20435;-74
2021/10/29 05:07:35;;;;;;;7.03;5.80;;;13.00;71.40;;;;;;2616532;31;20832;-74
2021/10/29 05:10:02;;;;;;;6.80;6.20;;;13.00;71.60;;;;;;2616724;54;20449;-73
2021/10/29 05:12:29;;;;;;;10.83;7.17;;;12.80;72.20;;;;;;2616034;54;20476;-74
2021/10/29 05:14:55;;;;;;;6.10;5.50;;;12.80;72.20;;;;;;2615544;39;20803;-73
2021/10/29 05:17:22;;;;;;;5.67;5.17;;;12.80;72.50;;;;;;2616518;54;20419;-73
2021/10/29 05:19:48;;;;;;;10.50;6.00;;;12.80;72.20;;;;;;2616226;54;20154;-74
2021/10/29 05:22:14;;;;;;;8.63;6.73;;;12.90;72.00;;;;;;2615339;54;20507;-73
2021/10/29 05:24:40;;;;;;;8.57;6.10;;;12.90;71.40;;;;;;2614748;54;20402;-72
2021/10/29 05:27:07;;;;;;;7.93;5.90;;;13.00;71.10;;;;;;2614045;54;20411;-74
2021/10/29 05:29:33;;;;;;;7.53;6.07;;;13.00;70.90;;;;;;2613696;54;20714;-74
2021/10/29 05:32:01;;;;;;;7.13;6.37;;;13.10;70.30;;;;;;2613179;54;20423;-73
2021/10/29 05:34:28;;;;;;;6.87;6.20;;;13.30;70.20;;;;;;2612458;54;20399;-73
2021/10/29 05:36:55;;;;;;;7.07;5.07;;;13.30;69.70;;;;;;2613466;54;20440;-74
2021/10/29 05:39:21;;;;;;;7.40;5.77;;;13.30;69.30;;;;;;2614246;47;20428;-73
2021/10/29 05:41:48;;;;;;;11.67;6.40;;;13.40;69.40;;;;;;2614868;54;20399;-75
2021/10/29 05:44:18;;;;;;;8.87;6.17;;;13.40;69.30;;;;;;2614553;54;20395;-75
2021/10/29 05:46:45;;;;;;;8.23;5.63;;;13.40;68.60;;;;;;2613289;52;20427;-73
2021/10/29 05:49:13;;;;;;;6.23;5.63;;;13.50;68.60;;;;;;2615366;54;20412;-73
2021/10/29 05:51:47;;;;;;;8.07;6.17;;;13.50;68.40;;;;;;2614415;47;20460;-73
2021/10/29 05:54:38;;;;;;;8.80;6.37;;;13.60;68.20;;;;;;2615398;54;20426;-73
2021/10/29 05:57:05;;;;;;;9.00;6.87;;;13.50;68.20;;;;;;2612535;39;22125;-74
2021/10/29 05:59:34;;;;;;;7.03;5.53;;;13.60;68.10;;;;;;2614446;54;20422;-74
2021/10/29 06:02:03;;;;;;;6.17;5.57;;;13.60;68.00;;;;;;2612376;47;20967;-76
2021/10/29 06:04:30;;;;;;;8.43;6.17;;;13.50;67.90;;;;;;2612998;54;20419;-74
2021/10/29 06:06:59;;;;;;;9.13;6.07;;;13.60;67.80;;;;;;2611351;54;20444;-73
2021/10/29 06:09:26;;;;;;;5.53;5.03;;;13.50;67.70;;;;;;2612987;54;20993;-75
2021/10/29 06:11:52;;;;;;;7.10;5.80;;;13.60;68.00;;;;;;2612745;54;20420;-73
2021/10/29 06:14:19;;;;;;;6.00;5.47;;;13.50;67.70;;;;;;2609701;54;20431;-74
2021/10/29 06:16:45;;;;;;;7.80;5.50;;;13.50;68.30;;;;;;2609106;54;21014;-74
2021/10/29 06:19:12;;;;;;;7.57;6.20;;;13.40;67.90;;;;;;2611934;54;20419;-73
2021/10/29 06:24:23;;;;;;;9.23;6.83;;;13.40;68.00;;;;;;2611559;54;20407;-75
2021/10/29 06:29:15;;;;;;;5.93;5.40;;;13.40;67.80;;;;;;2609946;54;20427;-74
2021/10/29 06:31:42;;;;;;;7.73;6.93;;;13.40;68.00;;;;;;2610605;54;20165;-74
2021/10/29 06:34:10;;;;;;;10.37;6.17;;;13.40;68.30;;;;;;2611220;39;20567;-74
2021/10/29 06:36:37;;;;;;;10.50;7.87;;;13.30;69.60;;;;;;2611979;54;20375;-73
2021/10/29 06:39:04;;;;;;;9.70;8.27;;;13.20;69.20;;;;;;2610832;54;20424;-74
2021/10/29 06:41:29;;;;;;;7.80;6.73;;;13.10;69.20;;;;;;2611572;54;20443;-75
2021/10/29 06:49:09;;;;;;;10.30;7.90;;;13.10;69.50;;;;;;2609805;47;20430;-74
2021/10/29 07:00:10;;;;;;;8.20;7.30;;;12.90;70.10;;;;;;2609855;54;20547;-74
2021/10/29 07:11:35;;;;;;;9.10;7.30;;;13.00;69.80;;;;;;2609159;54;20410;-74
2021/10/29 07:41:08;;;;;;;9.70;7.93;;;13.00;69.70;;;;;;2608743;54;21895;-73
2021/10/29 07:43:50;;;;;;;9.50;6.73;;;13.20;69.40;;;;;;2628217;36;20478;-73
2021/10/29 07:46:16;;;;;;;10.07;7.17;;;13.30;68.90;;;;;;2609436;54;20417;-72
2021/10/29 07:48:46;;;;;;;9.37;8.27;;;13.40;68.70;;;;;;2610525;54;20457;-73
2021/10/29 07:51:13;;;;;;;13.10;8.70;;;13.50;68.60;;;;;;2611636;54;20387;-72
2021/10/29 07:53:39;;;;;;;12.30;7.43;;;13.70;68.20;;;;;;2612192;48;20424;-72
2021/10/29 07:56:05;;;;;;;11.00;7.73;;;14.00;67.20;;;;;;2610698;54;20407;-72
2021/10/29 07:58:33;;;;;;;10.30;8.33;;;14.40;66.10;;;;;;2610504;54;20534;-71
2021/10/29 08:01:00;;;;;;;8.17;7.10;;;14.60;65.40;;;;;;2612867;54;20542;-72
2021/10/29 08:03:27;;;;;;;11.80;8.77;;;14.70;64.60;;;;;;2612292;39;21154;-73
2021/10/29 08:05:53;;;;;;;7.77;6.93;;;14.60;64.90;;;;;;2611421;54;20514;-72
2021/10/29 08:08:19;;;;;;;16.13;7.67;;;14.60;65.10;;;;;;2611570;47;20447;-72
2021/10/29 08:10:46;;;;;;;9.27;8.30;;;14.80;65.10;;;;;;2612074;54;20457;-74
2021/10/29 08:13:13;;;;;;;9.20;7.30;;;14.80;65.20;;;;;;2610501;47;20431;-73
2021/10/29 08:15:40;;;;;;;11.73;8.30;;;14.50;65.70;;;;;;2612273;54;20399;-74
2021/10/29 08:18:07;;;;;;;9.03;8.03;;;14.50;66.20;;;;;;2609013;54;20391;-73
2021/10/29 08:20:37;;;;;;;9.17;8.10;;;14.70;65.50;;;;;;2612841;54;20420;-70
2021/10/29 08:23:11;;;;;;;9.17;7.23;;;14.80;65.20;;;;;;2612195;54;20419;-73
2021/10/29 08:25:37;;;;;;;8.30;7.60;;;15.00;64.90;;;;;;2613507;39;20809;-72
2021/10/29 08:28:04;;;;;;;7.30;6.60;;;15.00;64.80;;;;;;2611602;54;20428;-72
2021/10/29 08:30:30;;;;;;;9.30;7.27;;;15.20;64.10;;;;;;2610729;54;20464;-71
2021/10/29 08:32:56;;;;;;;8.30;7.50;;;15.20;63.60;;;;;;2611747;54;20497;-72
2021/10/29 08:35:23;;;;;;;10.33;8.37;;;15.50;63.30;;;;;;2611845;54;20143;-71
2021/10/29 08:37:51;;;;;;;9.50;7.40;;;15.40;63.00;;;;;;2610726;46;20414;-73
2021/10/29 08:40:18;;;;;;;11.23;8.00;;;15.30;63.60;;;;;;2612353;54;20479;-73
2021/10/29 08:42:45;;;;;;;8.53;7.63;;;15.10;64.40;;;;;;2610689;54;20412;-73
2021/10/29 08:45:11;;;;;;;10.87;8.20;;;15.10;64.80;;;;;;2612178;54;20457;-71
2021/10/29 08:47:40;;;;;;;12.23;8.67;;;15.10;64.00;;;;;;2610977;54;20495;-72
2021/10/29 08:50:16;;;;;;;12.47;8.10;;;15.20;64.40;;;;;;2612305;54;20514;-72
2021/10/29 08:52:44;;;;;;;9.83;7.87;;;15.20;64.50;;;;;;2612039;47;20412;-73
2021/10/29 08:55:12;;;;;;;9.43;8.13;;;15.10;64.60;;;;;;2610866;47;20451;-72
2021/10/29 08:57:38;;;;;;;10.13;8.13;;;15.00;65.40;;;;;;2611318;54;20384;-72
2021/10/29 09:00:13;;;;;;;9.23;7.93;;;14.90;65.10;;;;;;2611687;54;20983;-71
2021/10/29 09:03:09;;;;;;;8.63;7.50;;;15.10;64.90;;;;;;2611519;54;20450;-72
2021/10/29 09:17:10;;;;;;;8.80;6.70;;;16.40;61.30;;;;;;2610486;54;20443;-71
2021/10/29 09:33:56;;;;;;;7.07;6.40;;;17.90;57.10;;;;;;2609302;54;20492;-71
2021/10/29 09:36:39;;;;;;;7.40;6.57;;;18.00;57.40;;;;;;2610609;54;21464;-72
2021/10/29 09:39:24;;;;;;;12.23;7.20;;;17.60;57.80;;;;;;2610576;54;20451;-71
2021/10/29 09:42:12;;;;;;;7.00;6.40;;;18.00;57.40;;;;;;2609580;54;20438;-73
2021/10/29 09:44:42;;;;;;;6.80;6.03;;;18.50;56.20;;;;;;2610813;54;20419;-71
2021/10/29 09:47:09;;;;;;;7.70;6.83;;;18.50;55.30;;;;;;2609941;54;20833;-71
2021/10/29 09:49:38;;;;;;;7.93;7.13;;;18.40;56.50;;;;;;2611019;54;20411;-73
2021/10/29 09:54:59;;;;;;;7.70;6.90;;;19.00;55.00;;;;;;2609497;54;20437;-72
2021/10/29 09:57:27;;;;;;;7.43;6.73;;;19.30;54.10;;;;;;2609122;54;20990;-71
2021/10/29 09:59:55;;;;;;;7.63;6.80;;;19.50;53.60;;;;;;2611191;54;20469;-70
2021/10/29 10:02:22;;;;;;;7.20;5.93;;;19.60;54.10;;;;;;2610456;54;20958;-72
2021/10/29 10:04:52;;;;;;;8.40;5.90;;;20.00;52.90;;;;;;2609418;54;20408;-72
2021/10/29 10:07:33;;;;;;;7.70;6.90;;;20.00;52.40;;;;;;2609255;54;20491;-72
2021/10/29 10:10:00;;;;;;;7.37;6.10;;;19.50;53.40;;;;;;2610140;47;20456;-72
2021/10/29 10:12:31;;;;;;;7.33;6.30;;;19.60;53.50;;;;;;2609281;54;20453;-73
2021/10/29 10:15:00;;;;;;;6.70;6.00;;;19.80;53.00;;;;;;2610157;39;20515;-74
2021/10/29 10:17:28;;;;;;;7.20;6.47;;;19.60;52.90;;;;;;2610238;54;20408;-72
2021/10/29 10:19:56;;;;;;;8.67;6.33;;;19.40;54.10;;;;;;2610896;54;20416;-72
2021/10/29 10:22:25;;;;;;;6.33;5.70;;;19.10;54.30;;;;;;2612434;54;20476;-72
2021/10/29 10:25:07;;;;;;;8.47;5.93;;;19.00;53.90;;;;;;2611232;54;20401;-73
2021/10/29 10:42:37;;;;;;;5.50;5.10;;;19.10;54.00;;;;;;2611110;54;20407;-71
2021/10/29 10:45:21;;;;;;;6.87;5.17;;;19.00;53.40;;;;;;2610479;54;20940;-71
2021/10/29 10:47:54;;;;;;;8.63;5.60;;;18.40;55.10;;;;;;2610250;54;20431;-71
2021/10/29 10:50:30;;;;;;;6.77;6.10;;;18.40;55.60;;;;;;2610991;54;20415;-72
2021/10/29 10:53:30;;;;;;;7.87;5.90;;;19.30;53.90;;;;;;2611509;54;20420;-72
2021/10/29 11:01:33;;;;;;;7.50;6.53;;;20.10;51.50;;;;;;2608037;54;20462;-72
2021/10/29 11:07:17;;;;;;;9.43;5.87;;;19.60;52.10;;;;;;2628850;36;20478;-73
2021/10/29 11:10:10;;;;;;;7.17;6.47;;;19.00;53.20;;;;;;2609829;54;21115;-72
2021/10/29 11:12:45;;;;;;;8.47;5.87;;;19.30;53.10;;;;;;2610012;54;20553;-71
2021/10/29 11:15:13;;;;;;;6.80;6.20;;;19.70;52.20;;;;;;2610079;54;20417;-73
2021/10/29 11:17:46;;;;;;;7.30;6.20;;;19.40;53.00;;;;;;2609782;39;20840;-73
2021/10/29 11:23:28;;;;;;;6.03;5.63;;;18.90;54.20;;;;;;2608803;39;20974;-72
2021/10/29 11:26:04;;;;;;;5.97;5.50;;;19.30;53.10;;;;;;2610379;54;20415;-73
2021/10/29 11:28:38;;;;;;;7.23;5.17;;;19.90;51.50;;;;;;2611002;54;20407;-72
2021/10/29 11:31:07;;;;;;;6.90;6.20;;;20.10;50.70;;;;;;2610231;54;20426;-72
2021/10/29 11:33:33;;;;;;;6.53;6.03;;;20.10;51.50;;;;;;2608607;54;20416;-71
2021/10/29 11:36:04;;;;;;;6.90;6.20;;;20.70;50.30;;;;;;2610325;54;20399;-72
2021/10/29 11:38:32;;;;;;;8.20;5.37;;;20.90;50.10;;;;;;2610632;39;21283;-72
2021/10/29 11:40:59;;;;;;;6.57;5.97;;;20.70;49.70;;;;;;2610711;54;20427;-71
2021/10/29 11:43:30;;;;;;;5.67;5.27;;;20.40;49.30;;;;;;2611757;54;21019;-72
2021/10/29 11:46:04;;;;;;;7.23;5.50;;;21.10;48.90;;;;;;2612319;54;21207;-72
2021/10/29 11:48:30;;;;;;;6.17;5.57;;;20.70;49.10;;;;;;2609047;54;20411;-74
2021/10/29 11:51:09;;;;;;;5.70;5.10;;;20.60;49.80;;;;;;2611537;54;20411;-72
2021/10/29 11:53:42;;;;;;;5.17;4.70;;;21.00;49.00;;;;;;2611944;54;20423;-72
2021/10/29 12:07:23;;;;;;;6.90;5.10;;;20.60;49.90;;;;;;2609580;54;20414;-73
2021/10/29 12:10:04;;;;;;;8.70;5.43;;;20.00;51.20;;;;;;2609044;54;20456;-72
2021/10/29 12:12:32;;;;;;;8.33;4.90;;;19.90;50.60;;;;;;2610874;54;20430;-72
2021/10/29 12:15:08;;;;;;;5.70;4.90;;;19.70;51.30;;;;;;2609989;54;20412;-73
2021/10/29 12:17:49;;;;;;;6.10;5.23;;;19.60;52.00;;;;;;2608596;54;20998;-71
2021/10/29 12:20:28;;;;;;;4.97;4.63;;;19.80;50.40;;;;;;2609559;54;20447;-73
2021/10/29 12:22:58;;;;;;;6.00;5.50;;;19.80;50.70;;;;;;2610370;54;21143;-71
2021/10/29 12:51:57;;;;;;;4.83;4.43;;;20.30;49.40;;;;;;2611778;54;20431;-73
2021/10/29 12:53:32;;;;;;;5.73;5.20;;;18.90;53.30;;;;;;2611309;54;20407;-73
2021/10/29 12:59:14;;;;;;;5.60;5.20;;;19.20;53.00;;;;;;2612174;54;20572;-71
2021/10/29 13:01:53;;;;;;;6.30;5.70;;;19.20;52.70;;;;;;2610698;39;21424;-72
2021/10/29 13:04:20;;;;;;;6.93;5.50;;;18.80;54.40;;;;;;2610663;54;20415;-71
2021/10/29 13:06:53;;;;;;;6.73;6.20;;;18.70;54.10;;;;;;2610335;54;20429;-72
2021/10/29 13:09:23;;;;;;;5.97;5.37;;;18.70;54.70;;;;;;2614624;54;20439;-73
2021/10/29 13:11:57;;;;;;;8.67;5.60;;;18.80;54.40;;;;;;2612107;54;20442;-72
2021/10/29 13:14:30;;;;;;;8.73;5.00;;;18.70;54.30;;;;;;2612307;39;20775;-72
2021/10/29 13:16:58;;;;;;;5.87;5.33;;;18.50;55.40;;;;;;2610813;47;20419;-71
2021/10/29 13:50:14;;;;;;;5.90;5.27;;;18.30;55.30;;;;;;2606876;54;20415;-72
2021/10/29 13:55:03;;;;;;;5.03;4.73;;;21.00;49.20;;;;;;2611271;54;20416;-71
2021/10/29 14:00:45;;;;;;;5.30;4.80;;;20.30;50.50;;;;;;2610903;39;21021;-72
2021/10/29 14:33:11;;;;;;;5.20;4.80;;;21.80;49.30;;;;;;2611516;54;20419;-73
2021/10/29 14:35:42;;;;;;;5.50;5.00;;;21.60;48.70;;;;;;2611767;54;20422;-73
2021/10/29 14:40:56;;;;;;;5.33;4.83;;;21.60;48.40;;;;;;2613492;54;20501;-72
2021/10/29 15:07:24;;;;;;;5.40;4.80;;;21.00;50.40;;;;;;2612828;54;20450;-71
2021/10/29 15:51:24;;;;;;;7.10;5.10;;;17.10;60.40;;;;;;2609002;54;20419;-72
2021/10/29 15:53:51;;;;;;;7.00;5.80;;;17.00;60.40;;;;;;2612372;54;20159;-72
2021/10/29 16:17:20;;;;;;;9.80;5.07;;;16.30;62.50;;;;;;2609199;54;20445;-72
2021/10/29 16:19:46;;;;;;;6.10;5.57;;;16.40;62.60;;;;;;2612104;54;20423;-71
2021/10/29 16:22:48;;;;;;;6.00;5.13;;;16.30;62.90;;;;;;2612897;39;20487;-71
2021/10/29 16:25:14;;;;;;;5.33;4.83;;;16.30;63.30;;;;;;2611883;54;21059;-73
2021/10/29 16:30:06;;;;;;;6.40;5.80;;;16.20;63.70;;;;;;2611898;39;20845;-72
2021/10/29 16:33:03;;;;;;;9.80;4.90;;;16.00;64.10;;;;;;2612395;54;20408;-72
2021/10/29 16:35:38;;;;;;;6.70;5.53;;;16.10;64.20;;;;;;2612026;54;20490;-72
2021/10/29 16:38:06;;;;;;;6.43;5.70;;;16.00;64.70;;;;;;2610511;39;20826;-71
2021/10/29 16:40:32;;;;;;;7.70;5.83;;;15.90;64.80;;;;;;2610176;54;20400;-73
2021/10/29 16:42:59;;;;;;;5.70;5.20;;;15.80;65.00;;;;;;2612541;54;20732;-73
2021/10/29 16:45:27;;;;;;;8.13;5.73;;;15.80;65.20;;;;;;2612747;54;20408;-72
2021/10/29 16:47:54;;;;;;;5.10;4.70;;;15.80;65.30;;;;;;2613477;54;20499;-72
2021/10/29 16:50:21;;;;;;;6.03;5.37;;;15.80;65.30;;;;;;2611963;47;21061;-72
2021/10/29 16:52:48;;;;;;;6.70;5.60;;;15.80;65.30;;;;;;2612860;54;20427;-72
2021/10/29 16:55:14;;;;;;;6.80;5.47;;;15.70;65.40;;;;;;2612106;54;20415;-72
2021/10/29 16:57:40;;;;;;;6.10;5.20;;;15.60;65.70;;;;;;2611069;47;20444;-71
2021/10/29 17:00:09;;;;;;;6.67;6.17;;;15.60;65.70;;;;;;2613140;54;21327;-72
2021/10/29 17:02:35;;;;;;;7.10;5.30;;;15.70;65.50;;;;;;2612811;54;20396;-71
2021/10/29 17:05:01;;;;;;;6.87;5.97;;;15.70;65.60;;;;;;2613293;54;20462;-71
2021/10/29 17:07:27;;;;;;;6.07;5.33;;;15.80;65.70;;;;;;2612409;54;20432;-72
2021/10/29 17:09:53;;;;;;;7.50;5.97;;;15.60;65.90;;;;;;2613164;39;20926;-73
2021/10/29 17:12:21;;;;;;;7.07;6.37;;;15.60;66.00;;;;;;2610743;54;20247;-73
2021/10/29 17:14:47;;;;;;;6.13;5.53;;;15.60;65.90;;;;;;2611249;54;20423;-72
2021/10/29 17:17:13;;;;;;;6.23;5.70;;;15.60;66.00;;;;;;2612233;54;20424;-71
2021/10/29 17:19:42;;;;;;;14.63;5.63;;;15.70;65.60;;;;;;2611504;47;20438;-72
2021/10/29 17:22:08;;;;;;;8.87;6.37;;;15.70;65.40;;;;;;2611070;54;20418;-72
2021/10/29 17:24:34;;;;;;;6.47;5.77;;;15.80;65.40;;;;;;2612717;39;20982;-71
2021/10/29 17:27:00;;;;;;;5.47;4.97;;;15.80;65.50;;;;;;2611719;54;20414;-71
2021/10/29 17:29:33;;;;;;;7.57;6.83;;;15.80;65.20;;;;;;2612625;47;20435;-71
2021/10/29 17:32:00;;;;;;;6.63;5.77;;;15.80;65.30;;;;;;2612075;54;20419;-72
2021/10/29 17:34:26;;;;;;;6.10;5.03;;;15.70;64.90;;;;;;2611932;54;20480;-71
2021/10/29 17:36:52;;;;;;;9.90;6.17;;;16.00;64.60;;;;;;2611749;54;21386;-73
2021/10/29 17:39:20;;;;;;;6.33;5.73;;;16.00;64.10;;;;;;2611231;54;20158;-73
2021/10/29 17:41:47;;;;;;;6.20;5.60;;;16.00;64.40;;;;;;2612589;54;20388;-72
2021/10/29 17:44:15;;;;;;;5.83;5.33;;;16.00;64.40;;;;;;2611002;39;20951;-71
2021/10/29 17:46:41;;;;;;;7.07;5.73;;;15.90;64.80;;;;;;2611971;39;20849;-72
2021/10/29 17:49:09;;;;;;;15.13;6.53;;;16.00;64.80;;;;;;2612327;54;20423;-72
2021/10/29 17:51:37;;;;;;;5.73;5.23;;;15.90;65.00;;;;;;2610657;54;20426;-72
2021/10/29 17:54:03;;;;;;;6.10;5.50;;;15.90;64.80;;;;;;2612208;54;20412;-72
2021/10/29 17:56:29;;;;;;;5.70;5.30;;;15.90;64.80;;;;;;2612278;47;20435;-72
2021/10/29 17:58:55;;;;;;;6.60;4.97;;;15.90;64.60;;;;;;2613005;54;20424;-71
2021/10/29 18:01:21;;;;;;;7.77;6.20;;;16.00;64.50;;;;;;2612780;54;20169;-72
2021/10/29 18:03:47;;;;;;;7.47;4.93;;;16.00;64.40;;;;;;2613061;54;20407;-72
2021/10/29 18:06:13;;;;;;;6.87;5.63;;;16.00;64.60;;;;;;2608326;54;20527;-72